Nelspruit, South Africa

9:15 PM SAST on January 25, 2015 (GMT +0200)
IMPUMALA11 | Change Station
CLOSE
Current Station
Personal Weather Station
Location: Nelspruit, MPUMALANGA
Elevation: 2552 ft
Nearby Weather Stations

Elev 2552 ft 25.49 °S, 30.99 °E | Updated 2 seconds ago

Partly Cloudy
Partly Cloudy
76.3 °F
Feels Like 78 °F
N
0.0
Wind Variable Wind from WNW
Gusts 0.0 mph

Today
High -- | Low -- °F
--% Chance of Precip.
Yesterday
High -- | Low -- °F
Precip. -- in
5:26 AM 6:50 PM
Waxing Crescent, 35% visible
Pressure 29.95 in
Visibility 6.2 miles
Clouds Few 3500 ft
Heat Index 78 °F
Dew Point 57 °F
Humidity 51%
Rainfall 0.99 in
Snow Depth Not available.
UV 0 out of 12
Pollen Not available.
Air Quality Not available.
Flu Activity Not available.
METAR FAKN 251800Z 07005KT 9999 FEW035TCU 26/15 Q1014 NOSIG

More Conditions Fewer Conditions

Pressure 29.95 in
Visibility 6.2 miles
Clouds Few 3500 ft
Heat Index 78 °F
Dew Point 57 °F
Humidity 51%
Rainfall 0.99 in
Snow Depth Not available.
UV 0 out of 12
Pollen Not available.
Air Quality Not available.
Flu Activity Not available.
METAR FAKN 251800Z 07005KT 9999 FEW035TCU 26/15 Q1014 NOSIG

More Conditions Fewer Conditions

10-Day Weather Forecast

Almanac

Astronomy

Jan. 25, 2015 Rise Set
Actual Time
Civil Twilight
Nautical Twilight
Astronomical Twilight
Moon
Length of Visible Light
Length of Day
Tomorrow will be .
, % of the Moon is Illuminated

Today's Extremes

Country Highs Country Lows

Community

WunderPhotos

Upload Photos

1,790,026 photos uploaded!

WunderBlogs® & News

Nearby

Air Quality

  Air Quality AQ Index Pollutant
Not available.

Snow Depth

Station Depth Elevation

Earthquake Activity

City Distance Mag. Time & Date
Minimum magnitude displayed is 2.5.

Coastal Water Temperatures

Place Temperature

Nearby Weather Stations